createdAt,value
2019-01-02T00:02:14.799Z,98048.93
2019-01-02T00:04:46.941Z,98062.56
2019-01-02T00:07:19.310Z,98052.75
2019-01-02T00:09:51.269Z,98067.91
2019-01-02T00:12:23.747Z,98050.91
2019-01-02T00:14:55.764Z,98049.27
2019-01-02T00:17:28.076Z,98071.58
2019-01-02T00:20:00.617Z,98047.68
2019-01-02T00:22:32.792Z,98047.68
2019-01-02T00:27:06.691Z,98056.97
2019-01-02T00:29:39.267Z,98056.25
2019-01-02T00:32:09.863Z,98045.06
2019-01-02T00:34:40.850Z,98043.23
2019-01-02T00:37:12.928Z,98033.66
2019-01-02T00:39:45.121Z,98033.66
2019-01-02T00:42:15.773Z,98045.96
2019-01-02T00:44:48.102Z,98045.08
2019-01-02T00:47:18.776Z,98045.08
2019-01-02T00:49:50.862Z,98041.98
2019-01-02T00:52:21.853Z,98051.14
2019-01-02T00:54:54.109Z,98054.66
2019-01-02T00:57:26.310Z,98046.23
2019-01-02T00:59:58.307Z,98065.55
2019-01-02T01:02:30.640Z,98073.11
2019-01-02T01:05:02.690Z,98072.85
2019-01-02T01:07:35.283Z,98069.90
2019-01-02T01:10:06.656Z,98083.58
2019-01-02T01:12:39.092Z,98070.49
2019-01-02T01:15:09.693Z,98076.73
2019-01-02T01:17:40.690Z,98082.33
2019-01-02T01:22:09.942Z,98087.29
2019-01-02T01:24:41.941Z,98087.29
2019-01-02T01:27:12.861Z,98093.34
2019-01-02T01:29:44.939Z,98095.63
2019-01-02T01:32:16.939Z,98099.91
2019-01-02T01:34:47.852Z,98099.91
2019-01-02T01:37:20.290Z,98105.09
2019-01-02T01:39:52.287Z,98096.73
2019-01-02T01:42:24.670Z,98097.79
2019-01-02T01:44:56.873Z,98108.88
2019-01-02T01:47:28.948Z,98107.36
2019-01-02T01:50:01.092Z,98119.33
2019-01-02T01:52:31.713Z,98120.79
2019-01-02T01:55:03.896Z,98113.64
2019-01-02T01:57:35.951Z,98120.29
2019-01-02T02:00:12.927Z,98125.57
2019-01-02T02:02:45.274Z,98119.11
2019-01-02T02:05:15.678Z,98119.11
2019-01-02T02:07:48.113Z,98120.63
2019-01-02T02:10:20.950Z,98128.75
2019-01-02T02:12:53.124Z,98128.75
2019-01-02T02:15:23.807Z,98142.02
2019-01-02T02:17:56.318Z,98142.98
2019-01-02T02:20:28.351Z,98139.00
2019-01-02T02:23:00.352Z,98139.31
2019-01-02T02:25:32.740Z,98139.31
2019-01-02T02:28:04.754Z,98140.99
2019-01-02T02:30:36.887Z,98140.94
2019-01-02T02:33:08.961Z,98145.97
2019-01-02T02:37:31.792Z,98150.50
2019-01-02T02:40:05.321Z,98150.50
2019-01-02T02:42:37.327Z,98142.70
2019-01-02T02:45:11.880Z,98151.09
2019-01-02T02:47:42.700Z,98141.11
2019-01-02T02:50:17.311Z,98147.39
2019-01-02T02:52:49.945Z,98144.62
2019-01-02T02:55:26.282Z,98152.84
2019-01-02T02:57:58.314Z,98149.44
2019-01-02T03:00:30.118Z,98149.37
2019-01-02T03:03:02.291Z,98142.20
2019-01-02T03:05:34.295Z,98142.54
2019-01-02T03:08:04.878Z,98141.17
2019-01-02T03:10:35.803Z,98142.91
2019-01-02T03:13:06.694Z,98150.83
2019-01-02T03:15:38.960Z,98154.09
2019-01-02T03:18:09.799Z,98143.21
2019-01-02T03:20:41.882Z,98142.62
2019-01-02T03:23:13.947Z,98139.04
2019-01-02T03:25:46.370Z,98148.62
2019-01-02T03:28:18.759Z,98167.38
2019-01-02T03:30:51.130Z,98147.09
2019-01-02T03:33:23.647Z,98153.47
2019-01-02T03:35:55.741Z,98153.47
2019-01-02T03:41:07.980Z,98129.95
2019-01-02T03:43:39.955Z,98144.17
2019-01-02T03:46:11.943Z,98145.88
2019-01-02T03:48:44.143Z,98154.69
2019-01-02T03:51:16.288Z,98156.02
2019-01-02T03:53:46.815Z,98152.44
2019-01-02T03:56:19.303Z,98153.98
2019-01-02T03:58:51.105Z,98160.95
2019-01-02T04:01:23.288Z,98160.95
2019-01-02T04:03:53.866Z,98142.22
2019-01-02T04:06:25.898Z,98154.95
2019-01-02T04:08:57.953Z,98166.27
2019-01-02T04:11:29.953Z,98167.86
2019-01-02T04:14:01.956Z,98170.00
2019-01-02T04:16:34.126Z,98171.31
2019-01-02T04:19:06.260Z,98168.53
2019-01-02T04:21:36.868Z,98168.53
2019-01-02T04:24:09.060Z,98174.83
2019-01-02T04:26:41.118Z,98173.45
2019-01-02T04:29:13.113Z,98175.20
2019-01-02T04:31:45.289Z,98171.45
2019-01-02T04:34:15.876Z,98174.20
2019-01-02T04:36:47.951Z,98179.33
2019-01-02T04:39:19.957Z,98179.33
2019-01-02T04:41:52.287Z,98190.12
2019-01-02T04:44:22.872Z,98188.58
2019-01-02T04:46:56.612Z,98170.97
2019-01-02T04:49:28.901Z,98192.31
2019-01-02T04:52:01.288Z,98192.27
2019-01-02T04:54:32.285Z,98191.50
2019-01-02T04:57:03.086Z,98188.80
2019-01-02T04:59:34.883Z,98199.56
2019-01-02T05:02:08.953Z,98190.94
2019-01-02T05:04:41.288Z,98200.89
2019-01-02T05:07:11.875Z,98203.22
2019-01-02T05:09:44.356Z,98202.61
2019-01-02T05:12:16.673Z,98194.55
2019-01-02T05:14:49.284Z,98194.55
2019-01-02T05:17:19.983Z,98215.05
2019-01-02T05:19:52.280Z,98211.13
2019-01-02T05:22:23.028Z,98218.56
2019-01-02T05:24:55.298Z,98212.31
2019-01-02T05:27:27.321Z,98213.38
2019-01-02T05:29:59.692Z,98216.11
2019-01-02T05:32:32.898Z,98226.41
2019-01-02T05:35:05.291Z,98231.47
2019-01-02T05:37:37.314Z,98232.59
2019-01-02T05:40:13.954Z,98242.95
2019-01-02T05:42:47.665Z,98240.09
2019-01-02T05:45:19.948Z,98248.89
2019-01-02T05:47:52.287Z,98245.00
2019-01-02T05:50:23.070Z,98237.35
2019-01-02T05:52:55.295Z,98250.16
2019-01-02T05:55:26.286Z,98250.16
2019-01-02T05:57:56.873Z,98241.52
2019-01-02T06:00:29.315Z,98251.09
2019-01-02T06:03:01.638Z,98259.11
2019-01-02T06:05:33.994Z,98264.77
2019-01-02T06:08:07.569Z,98257.61
2019-01-02T06:10:39.886Z,98270.11
2019-01-02T06:13:12.076Z,98268.02
2019-01-02T06:15:44.281Z,98267.70
2019-01-02T06:18:15.288Z,98267.70
2019-01-02T06:20:46.099Z,98255.02
2019-01-02T06:23:18.322Z,98275.91
2019-01-02T06:25:50.269Z,98269.80
2019-01-02T06:28:22.314Z,98261.66
2019-01-02T06:30:54.707Z,98292.86
2019-01-02T06:33:26.895Z,98292.86
2019-01-02T06:35:59.124Z,98283.02
2019-01-02T06:38:30.063Z,98274.23
2019-01-02T06:41:02.291Z,98291.09
2019-01-02T06:43:34.284Z,98297.50
2019-01-02T06:46:05.339Z,98306.99
2019-01-02T06:48:37.322Z,98298.06
2019-01-02T06:51:09.674Z,98299.70
2019-01-02T06:53:43.291Z,98300.61
2019-01-02T06:56:14.112Z,98310.38
2019-01-02T06:58:45.280Z,98310.38
2019-01-02T07:01:15.991Z,98317.86
2019-01-02T07:03:48.296Z,98317.86
2019-01-02T07:06:19.287Z,98320.59
2019-01-02T07:08:50.289Z,98323.59
2019-01-02T07:11:21.287Z,98344.46
2019-01-02T07:13:52.036Z,98324.11
2019-01-02T07:16:24.570Z,98345.22
2019-01-02T07:18:56.683Z,98333.69
2019-01-02T07:21:29.238Z,98357.69
2019-01-02T07:24:00.234Z,98359.70
2019-01-02T07:26:31.059Z,98361.18
2019-01-02T07:29:03.368Z,98340.09
2019-01-02T07:31:35.635Z,98362.63
2019-01-02T07:35:09.674Z,98378.12
2019-01-02T07:38:41.290Z,98375.71
2019-01-02T07:41:49.039Z,98367.50
2019-01-02T07:45:54.895Z,98388.40
2019-01-02T07:49:57.411Z,98388.40
2019-01-02T07:53:18.378Z,98379.31
2019-01-02T07:57:05.710Z,98379.31
2019-01-02T08:00:07.661Z,98380.28
2019-01-02T08:03:21.334Z,98378.00
2019-01-02T08:06:37.645Z,98379.58
2019-01-02T08:10:16.286Z,98379.58
2019-01-02T08:13:29.836Z,98374.11
2019-01-02T08:16:49.901Z,98392.08
2019-01-02T08:20:30.288Z,98446.61
2019-01-02T08:23:20.520Z,98385.32
2019-01-02T08:26:50.296Z,98417.41
2019-01-02T08:29:58.681Z,98401.98
2019-01-02T08:33:51.275Z,98391.64
2019-01-02T08:37:05.714Z,98385.70
2019-01-02T08:44:48.699Z,98417.88
2019-01-02T08:48:02.747Z,98417.85
2019-01-02T08:51:31.306Z,98424.94
2019-01-02T08:54:50.644Z,98425.91
2019-01-02T08:58:37.365Z,98425.91
2019-01-02T09:02:04.724Z,98428.45
2019-01-02T09:05:21.345Z,98445.94
2019-01-02T09:08:51.758Z,98436.63
2019-01-02T09:12:32.752Z,98449.52
2019-01-02T09:15:47.314Z,98451.05
2019-01-02T09:19:30.627Z,98445.55
2019-01-02T09:23:17.676Z,98445.55
2019-01-02T09:26:39.625Z,98435.27
2019-01-02T09:29:55.321Z,98454.77
2019-01-02T09:33:15.918Z,98454.77
2019-01-02T09:37:07.684Z,98466.66
2019-01-02T09:40:30.182Z,98479.93
2019-01-02T09:44:02.685Z,98478.22
2019-01-02T09:47:41.732Z,98495.81
2019-01-02T09:51:09.281Z,98497.71
2019-01-02T09:54:28.699Z,98507.04
2019-01-02T09:57:43.134Z,98491.14
2019-01-02T10:00:56.635Z,98504.51
2019-01-02T10:04:12.941Z,98500.00
2019-01-02T10:07:32.785Z,98501.10
2019-01-02T10:11:06.306Z,98501.55
2019-01-02T10:14:27.774Z,98495.13
2019-01-02T10:17:56.316Z,98505.44
2019-01-02T10:21:20.364Z,98515.02
2019-01-02T10:25:16.946Z,98505.24
2019-01-02T10:29:14.281Z,98508.33
2019-01-02T10:32:14.559Z,98510.34
2019-01-02T10:35:23.867Z,98508.95
2019-01-02T10:38:55.721Z,98525.62
2019-01-02T10:42:17.297Z,98513.94
2019-01-02T10:46:13.497Z,98538.66
2019-01-02T10:52:12.776Z,98525.38
2019-01-02T10:55:38.291Z,98531.89
2019-01-02T10:59:08.063Z,98531.89
2019-01-02T11:02:23.878Z,98538.93
2019-01-02T11:05:50.114Z,98533.34
2019-01-02T11:09:23.940Z,98528.95
2019-01-02T11:12:57.854Z,98528.95
2019-01-02T11:16:14.765Z,98553.49
2019-01-02T11:19:43.767Z,98553.49
2019-01-02T11:22:46.691Z,98554.61
2019-01-02T11:26:36.631Z,98555.45
2019-01-02T11:30:15.785Z,98563.88
2019-01-02T11:34:11.679Z,98534.05
2019-01-02T11:37:31.644Z,98548.67
2019-01-02T11:41:13.259Z,98537.58
2019-01-02T11:44:22.880Z,98567.97
2019-01-02T11:46:55.127Z,98566.95
2019-01-02T11:49:25.698Z,98571.41
2019-01-02T11:51:57.878Z,98576.30
2019-01-02T11:54:29.943Z,98575.73
2019-01-02T11:57:02.107Z,98575.73
2019-01-02T11:59:34.109Z,98592.36
2019-01-02T12:02:06.297Z,98593.33
2019-01-02T12:04:38.295Z,98606.33
2019-01-02T12:07:10.293Z,98606.33
2019-01-02T12:09:42.293Z,98602.22
2019-01-02T12:12:13.092Z,98598.28
2019-01-02T12:14:45.071Z,98602.98
2019-01-02T12:17:17.258Z,98610.16
2019-01-02T12:19:47.863Z,98605.09
2019-01-02T12:22:19.934Z,98616.05
2019-01-02T12:24:52.238Z,98620.09
2019-01-02T12:27:22.824Z,98611.30
2019-01-02T12:29:54.881Z,98632.67
2019-01-02T12:32:26.941Z,98632.67
2019-01-02T12:34:58.933Z,98627.80
2019-01-02T12:37:31.263Z,98624.48
2019-01-02T12:40:01.837Z,98628.14
2019-01-02T12:42:34.131Z,98641.20
2019-01-02T12:45:04.805Z,98649.61
2019-01-02T12:47:36.944Z,98634.60
2019-01-02T12:50:10.943Z,98654.16
2019-01-02T12:52:42.933Z,98649.08
2019-01-02T12:55:14.947Z,98644.32
2019-01-02T12:57:47.075Z,98654.59
2019-01-02T13:00:22.125Z,98642.31
2019-01-02T13:03:49.069Z,98647.89
2019-01-02T13:07:07.703Z,98654.40
2019-01-02T13:10:20.796Z,98655.53
2019-01-02T13:13:57.666Z,98654.16
2019-01-02T13:16:57.686Z,98669.77
2019-01-02T13:20:07.318Z,98659.69
2019-01-02T13:23:15.739Z,98669.32
2019-01-02T13:26:59.456Z,98680.03
2019-01-02T13:30:22.273Z,98669.91
2019-01-02T13:33:24.400Z,98669.91
2019-01-02T13:36:51.527Z,98687.99
2019-01-02T13:40:16.158Z,98675.42
2019-01-02T13:43:00.069Z,98677.98
2019-01-02T13:46:21.366Z,98683.41
2019-01-02T13:49:44.970Z,98691.23
2019-01-02T13:52:16.942Z,98691.23
2019-01-02T13:54:49.251Z,98694.12
2019-01-02T13:57:19.791Z,98710.27
2019-01-02T13:59:51.930Z,98710.06
2019-01-02T14:02:23.937Z,98719.59
2019-01-02T14:04:56.100Z,98719.94
2019-01-02T14:07:28.282Z,98726.94
2019-01-02T14:10:00.266Z,98733.09
2019-01-02T14:12:32.249Z,98731.98
2019-01-02T14:15:02.992Z,98740.89
2019-01-02T14:17:34.935Z,98735.56
2019-01-02T14:22:49.744Z,98762.27
2019-01-02T14:25:21.944Z,98762.27
2019-01-02T14:27:53.933Z,98762.75
2019-01-02T14:30:25.952Z,98770.83
2019-01-02T14:32:58.073Z,98775.98
2019-01-02T14:35:30.189Z,98772.16
2019-01-02T14:38:00.804Z,98788.98
2019-01-02T14:40:32.932Z,98792.89
2019-01-02T14:43:04.947Z,98787.25
2019-01-02T14:45:37.133Z,98789.30
2019-01-02T14:48:07.694Z,98795.81
2019-01-02T14:50:39.927Z,98802.70
2019-01-02T14:53:12.298Z,98803.31
2019-01-02T14:55:42.886Z,98811.15
2019-01-02T14:58:15.621Z,98818.79
2019-01-02T15:00:47.652Z,98817.06
2019-01-02T15:03:19.725Z,98825.67
2019-01-02T15:05:51.774Z,98823.73
2019-01-02T15:08:23.886Z,98833.29
2019-01-02T15:10:55.943Z,98837.41
2019-01-02T15:13:27.945Z,98841.31
2019-01-02T15:15:59.940Z,98845.05
2019-01-02T15:18:32.268Z,98849.72
2019-01-02T15:21:03.008Z,98861.25
2019-01-02T15:23:35.137Z,98861.25
2019-01-02T15:26:05.713Z,98862.62
2019-01-02T15:28:37.739Z,98865.17
2019-01-02T15:31:10.075Z,98870.64
2019-01-02T15:33:42.280Z,98870.64
2019-01-02T15:36:12.858Z,98874.34
2019-01-02T15:38:44.944Z,98874.34
2019-01-02T15:41:16.944Z,98873.56
2019-01-02T15:43:48.950Z,98876.50
2019-01-02T15:46:20.955Z,98879.23
2019-01-02T15:48:53.835Z,98876.67
2019-01-02T15:51:25.949Z,98884.88
2019-01-02T15:53:58.283Z,98887.21
2019-01-02T15:56:28.874Z,98892.66
2019-01-02T15:59:01.112Z,98901.44
2019-01-02T16:01:33.280Z,98903.41
2019-01-02T16:04:03.858Z,98899.10
2019-01-02T16:06:37.669Z,98911.80
2019-01-02T16:09:10.986Z,98915.12
2019-01-02T16:11:43.259Z,98917.84
2019-01-02T16:14:17.053Z,98924.48
2019-01-02T16:16:51.944Z,98914.92
2019-01-02T16:19:24.113Z,98923.31
2019-01-02T16:21:55.131Z,98927.61
2019-01-02T16:24:27.281Z,98920.20
2019-01-02T16:26:58.017Z,98927.22
2019-01-02T16:29:30.657Z,98921.92
2019-01-02T16:32:02.843Z,98928.00
2019-01-02T16:34:35.123Z,98917.42
2019-01-02T16:37:06.274Z,98930.12
2019-01-02T16:39:37.025Z,98926.23
2019-01-02T16:42:09.135Z,98928.17
2019-01-02T16:44:41.335Z,98938.52
2019-01-02T16:47:13.666Z,98938.52
2019-01-02T16:49:45.768Z,98938.52
2019-01-02T16:52:18.289Z,98948.27
2019-01-02T16:54:48.879Z,98949.42
2019-01-02T16:57:21.263Z,98953.93
2019-01-02T16:59:52.076Z,98952.13
2019-01-02T17:02:24.287Z,98969.51
2019-01-02T17:04:54.862Z,98968.89
2019-01-02T17:07:27.942Z,98970.06
2019-01-02T17:10:00.238Z,98980.78
2019-01-02T17:12:32.301Z,98974.49
2019-01-02T17:15:03.012Z,98976.64
2019-01-02T17:17:35.285Z,98983.27
2019-01-02T17:20:06.586Z,98983.27
2019-01-02T17:22:38.934Z,98990.42
2019-01-02T17:25:11.948Z,98986.32
2019-01-02T17:27:44.113Z,98985.16
2019-01-02T17:30:16.285Z,99001.87
2019-01-02T17:32:46.876Z,99003.43
2019-01-02T17:35:18.944Z,99007.33
2019-01-02T17:37:51.302Z,99016.46
2019-01-02T17:40:23.301Z,99019.02
2019-01-02T17:42:54.275Z,99018.23
2019-01-02T17:45:24.866Z,99018.02
2019-01-02T17:47:57.669Z,99025.42
2019-01-02T17:50:29.915Z,99026.17
2019-01-02T17:53:02.273Z,99026.17
2019-01-02T17:55:32.807Z,99030.51
2019-01-02T17:58:05.118Z,99028.56
2019-01-02T18:00:37.286Z,99028.56
2019-01-02T18:04:09.713Z,99028.37
2019-01-02T18:06:42.103Z,99032.84
2019-01-02T18:09:14.273Z,99037.08
2019-01-02T18:12:21.954Z,99044.53
2019-01-02T18:14:54.280Z,99041.42
2019-01-02T18:17:24.862Z,99045.89
2019-01-02T18:19:57.077Z,99036.49
2019-01-02T18:22:29.282Z,99043.52
2019-01-02T18:25:00.628Z,99046.25
2019-01-02T18:27:32.783Z,99058.13
2019-01-02T18:30:05.292Z,99058.59
2019-01-02T18:32:35.862Z,99060.12
2019-01-02T18:35:08.282Z,99056.82
2019-01-02T18:37:38.952Z,99064.20
2019-01-02T18:40:11.137Z,99064.95
2019-01-02T18:42:41.688Z,99072.55
2019-01-02T18:45:13.958Z,99065.31
2019-01-02T18:47:46.283Z,99079.78
2019-01-02T18:50:17.069Z,99077.05
2019-01-02T18:52:49.170Z,99083.30
2019-01-02T18:55:20.008Z,99092.64
2019-01-02T18:57:52.247Z,99089.33
2019-01-02T19:00:25.275Z,99095.18
2019-01-02T19:02:56.273Z,99097.76
2019-01-02T19:05:27.143Z,99106.73
2019-01-02T19:07:59.318Z,99099.95
2019-01-02T19:10:31.276Z,99099.40
2019-01-02T19:13:01.736Z,99101.40
2019-01-02T19:15:33.927Z,99115.84
2019-01-02T19:18:06.278Z,99115.84
2019-01-02T19:20:37.016Z,99117.83
2019-01-02T19:23:09.280Z,99121.77
2019-01-02T19:25:40.067Z,99124.51
2019-01-02T19:28:12.281Z,99127.81
2019-01-02T19:30:43.104Z,99126.25
2019-01-02T19:33:15.281Z,99131.33
2019-01-02T19:35:45.853Z,99136.59
2019-01-02T19:38:19.279Z,99137.36
2019-01-02T19:40:50.026Z,99130.05
2019-01-02T19:43:23.510Z,99140.54
2019-01-02T19:45:56.267Z,99142.84
2019-01-02T19:48:27.013Z,99145.52
2019-01-02T19:50:59.245Z,99144.28
2019-01-02T19:53:29.987Z,99144.28
2019-01-02T19:56:02.122Z,99150.73
2019-01-02T19:58:35.297Z,99154.97
2019-01-02T20:01:06.016Z,99165.88
2019-01-02T20:03:38.127Z,99161.00
2019-01-02T20:06:10.240Z,99170.55
2019-01-02T20:08:41.100Z,99163.16
2019-01-02T20:11:13.272Z,99172.13
2019-01-02T20:13:43.726Z,99173.81
2019-01-02T20:16:15.760Z,99158.44
2019-01-02T20:18:47.887Z,99165.97
2019-01-02T20:21:20.281Z,99159.91
2019-01-02T20:23:51.018Z,99165.72
2019-01-02T20:26:23.282Z,99160.61
2019-01-02T20:28:54.246Z,99160.21
2019-01-02T20:31:25.286Z,99171.17
2019-01-02T20:33:56.083Z,99171.77
2019-01-02T20:36:28.279Z,99166.89
2019-01-02T20:38:58.994Z,99168.13
2019-01-02T20:41:31.251Z,99166.38
2019-01-02T20:44:02.064Z,99167.47
2019-01-02T20:46:34.281Z,99158.36
2019-01-02T20:49:04.868Z,99161.86
2019-01-02T20:51:36.939Z,99166.55
2019-01-02T20:54:09.249Z,99171.69
2019-01-02T20:56:40.283Z,99176.16
2019-01-02T20:59:10.708Z,99171.22
2019-01-02T21:01:43.152Z,99167.23
2019-01-02T21:04:13.859Z,99172.33
2019-01-02T21:06:46.282Z,99176.36
2019-01-02T21:09:17.280Z,99174.19
2019-01-02T21:11:47.870Z,99171.70
2019-01-02T21:14:20.255Z,99169.55
2019-01-02T21:16:51.051Z,99179.72
2019-01-02T21:19:23.125Z,99172.83
2019-01-02T21:21:55.277Z,99181.44
2019-01-02T21:24:26.055Z,99180.59
2019-01-02T21:26:58.274Z,99185.41
2019-01-02T21:29:29.064Z,99185.41
2019-01-02T21:32:01.282Z,99190.61
2019-01-02T21:34:32.034Z,99188.27
2019-01-02T21:37:04.276Z,99186.52
2019-01-02T21:39:34.995Z,99177.75
2019-01-02T21:42:07.964Z,99183.84
2019-01-02T21:44:40.277Z,99183.21
2019-01-02T21:47:12.299Z,99181.91
2019-01-02T21:49:44.692Z,99177.16
2019-01-02T21:52:17.001Z,99175.23
2019-01-02T21:54:49.290Z,99175.45
2019-01-02T21:57:21.306Z,99177.81
2019-01-02T21:59:53.527Z,99174.09
2019-01-02T22:02:25.762Z,99173.66
2019-01-02T22:04:57.951Z,99174.77
2019-01-02T22:07:30.435Z,99169.44
2019-01-02T22:10:02.762Z,99172.95
2019-01-02T22:12:35.272Z,99172.95
2019-01-02T22:15:06.604Z,99170.04
2019-01-02T22:17:40.414Z,99168.44
2019-01-02T22:20:12.682Z,99168.02
2019-01-02T22:22:44.966Z,99164.23
2019-01-02T22:25:18.963Z,99164.23
2019-01-02T22:27:51.909Z,99173.80
2019-01-02T22:30:24.533Z,99176.44
2019-01-02T22:32:57.126Z,99180.08
2019-01-02T22:35:29.282Z,99181.77
2019-01-02T22:38:00.879Z,99181.77
2019-01-02T22:40:33.271Z,99186.40
2019-01-02T22:43:05.861Z,99183.58
2019-01-02T22:45:38.666Z,99190.72
2019-01-02T22:48:10.951Z,99197.89
2019-01-02T22:50:43.385Z,99202.55
2019-01-02T22:53:15.730Z,99204.34
2019-01-02T22:55:48.286Z,99204.34
2019-01-02T22:58:20.950Z,99211.47
2019-01-02T23:01:12.303Z,99211.88
2019-01-02T23:04:06.276Z,99212.88
2019-01-02T23:06:54.547Z,99219.44
2019-01-02T23:09:58.266Z,99216.28
2019-01-02T23:12:50.290Z,99211.38
2019-01-02T23:15:41.723Z,99212.41
2019-01-02T23:18:44.623Z,99212.30
2019-01-02T23:21:34.293Z,99212.30
2019-01-02T23:24:31.309Z,99216.92
2019-01-02T23:27:29.691Z,99216.92
2019-01-02T23:30:23.404Z,99216.92
2019-01-02T23:33:14.421Z,99226.03
2019-01-02T23:36:23.942Z,99219.50
2019-01-02T23:39:17.653Z,99219.50
2019-01-02T23:42:07.549Z,99220.69
2019-01-02T23:45:04.599Z,99222.05
2019-01-02T23:48:04.906Z,99227.98
2019-01-02T23:50:54.566Z,99230.32
2019-01-02T23:53:44.282Z,99235.52
2019-01-02T23:56:36.628Z,99235.52
2019-01-02T23:59:27.451Z,99242.58
